Time;durP1;ratioP1;P1;durP2;ratioP2;P2;SDS_P1;SDS_P2;PMS_P1;PMS_P2;Temp;Humidity;BMP_temperature;BMP_pressure;BME280_temperature;BME280_humidity;BME280_pressure;Samples;Min_cycle;Max_cycle;Signal;HPM_P1;HPM_P2
2021/06/01 00:01:42;;;;;;;15.20;11.55;;;13.90;94.30;;;;;;5028300;28;20056;-66
2021/06/01 00:04:09;;;;;;;13.10;11.70;;;13.90;94.40;;;;;;5020067;28;20060;-66
2021/06/01 00:06:35;;;;;;;16.63;11.45;;;13.90;94.40;;;;;;5039107;28;20524;-66
2021/06/01 00:09:04;;;;;;;17.75;12.73;;;13.80;94.50;;;;;;5028337;28;20048;-66
2021/06/01 00:11:30;;;;;;;16.20;11.85;;;13.80;94.60;;;;;;5023344;28;20053;-66
2021/06/01 00:13:56;;;;;;;13.70;12.20;;;13.80;94.40;;;;;;5022767;28;20497;-66
2021/06/01 00:16:22;;;;;;;14.50;11.25;;;13.70;94.50;;;;;;5034603;28;20029;-66
2021/06/01 00:18:48;;;;;;;16.80;12.27;;;13.70;94.40;;;;;;5018820;28;20700;-66
2021/06/01 00:21:14;;;;;;;14.75;12.35;;;13.70;94.70;;;;;;5027322;28;20061;-66
2021/06/01 00:23:40;;;;;;;15.50;12.77;;;13.60;94.40;;;;;;5029409;28;20041;-66
2021/06/01 00:26:10;;;;;;;14.00;11.77;;;13.60;94.80;;;;;;5027680;28;20047;-66
2021/06/01 00:28:37;;;;;;;17.65;13.07;;;13.50;94.90;;;;;;5027715;28;20390;-66
2021/06/01 00:31:03;;;;;;;14.68;11.88;;;13.50;94.60;;;;;;5028220;28;20091;-66
2021/06/01 00:33:29;;;;;;;15.25;12.85;;;13.40;94.80;;;;;;5031401;28;20038;-66
2021/06/01 00:35:55;;;;;;;15.20;12.77;;;13.40;95.40;;;;;;5023401;28;20056;-66
2021/06/01 00:38:21;;;;;;;14.60;11.73;;;13.40;95.40;;;;;;5027625;28;20041;-66
2021/06/01 00:40:47;;;;;;;17.45;12.38;;;13.30;95.40;;;;;;5028973;28;20050;-66
2021/06/01 00:43:13;;;;;;;19.77;12.27;;;13.30;95.70;;;;;;5035543;28;20044;-66
2021/06/01 00:45:40;;;;;;;15.95;12.13;;;13.30;95.70;;;;;;5017147;28;20555;-66
2021/06/01 00:48:07;;;;;;;15.07;12.65;;;13.20;95.30;;;;;;5029468;28;20046;-66
2021/06/01 00:50:33;;;;;;;18.27;12.40;;;13.20;95.20;;;;;;5028750;28;20136;-66
2021/06/01 00:53:00;;;;;;;14.70;12.45;;;13.10;95.20;;;;;;5036844;28;20508;-66
2021/06/01 00:55:26;;;;;;;13.90;12.02;;;13.10;95.90;;;;;;5026797;28;20518;-66
2021/06/01 00:57:53;;;;;;;17.13;13.18;;;13.10;95.60;;;;;;5025604;28;20063;-66
2021/06/01 01:03:06;;;;;;;16.65;12.00;;;13.00;96.30;;;;;;5035024;28;20116;-66
2021/06/01 01:05:37;;;;;;;15.82;12.55;;;13.00;96.00;;;;;;5024443;28;20046;-66
2021/06/01 01:11:33;;;;;;;17.08;13.95;;;13.00;95.80;;;;;;5004865;28;20053;-66
2021/06/01 01:14:15;;;;;;;13.93;12.52;;;12.90;95.90;;;;;;5027522;28;20041;-66
2021/06/01 01:16:54;;;;;;;17.83;12.93;;;12.80;96.10;;;;;;5029992;28;20060;-66
2021/06/01 01:19:42;;;;;;;15.02;13.48;;;12.70;96.80;;;;;;5030650;28;20049;-66
2021/06/01 01:22:09;;;;;;;18.33;13.77;;;12.70;97.00;;;;;;5018201;28;20346;-66
2021/06/01 01:24:37;;;;;;;16.48;13.75;;;12.70;96.80;;;;;;5034847;28;20436;-66
2021/06/01 01:27:32;;;;;;;16.48;12.73;;;12.70;96.70;;;;;;5023326;28;20041;-66
2021/06/01 01:30:01;;;;;;;17.33;12.48;;;12.70;96.90;;;;;;5035469;28;20127;-66
2021/06/01 01:32:35;;;;;;;17.77;14.10;;;12.70;96.60;;;;;;5023909;28;20492;-66
2021/06/01 01:35:03;;;;;;;15.68;13.20;;;12.70;96.60;;;;;;5031575;28;20089;-66
2021/06/01 01:37:32;;;;;;;17.42;13.50;;;12.60;96.90;;;;;;5026809;28;20402;-66
2021/06/01 01:40:00;;;;;;;18.52;14.20;;;12.60;96.90;;;;;;5029974;28;20481;-66
2021/06/01 01:42:38;;;;;;;20.17;13.73;;;12.50;96.80;;;;;;5023190;28;20489;-66
2021/06/01 01:45:08;;;;;;;16.42;13.95;;;12.50;96.90;;;;;;5031770;28;20026;-66
2021/06/01 01:50:02;;;;;;;19.60;13.82;;;12.50;97.30;;;;;;5029133;28;20149;-66
2021/06/01 01:52:28;;;;;;;17.02;13.80;;;12.40;97.50;;;;;;5027250;28;20041;-66
2021/06/01 01:54:55;;;;;;;16.95;13.85;;;12.40;97.30;;;;;;5033224;28;20041;-66
2021/06/01 01:57:22;;;;;;;16.20;12.70;;;12.30;97.50;;;;;;5021303;28;20041;-66
2021/06/01 01:59:49;;;;;;;17.98;13.95;;;12.30;97.70;;;;;;5027356;28;20124;-66
2021/06/01 02:02:15;;;;;;;17.80;14.85;;;12.20;97.70;;;;;;5023536;28;22385;-66
2021/06/01 02:04:43;;;;;;;20.90;14.40;;;12.20;97.50;;;;;;5031414;28;20112;-66
2021/06/01 02:07:09;;;;;;;15.80;13.15;;;12.20;97.90;;;;;;5029457;28;20128;-66
2021/06/01 02:09:35;;;;;;;17.30;14.82;;;12.20;97.60;;;;;;5028533;28;20124;-66
2021/06/01 02:12:01;;;;;;;16.35;14.68;;;12.10;97.70;;;;;;5027764;28;20052;-66
2021/06/01 02:14:27;;;;;;;22.63;14.73;;;12.10;97.90;;;;;;5027140;28;20041;-66
2021/06/01 02:16:54;;;;;;;19.02;14.98;;;12.00;98.30;;;;;;5030005;28;20400;-66
2021/06/01 02:19:21;;;;;;;18.83;15.75;;;12.00;98.60;;;;;;5023401;28;20080;-66
2021/06/01 02:24:36;;;;;;;21.48;15.52;;;12.00;98.40;;;;;;5015258;28;20038;-66
2021/06/01 02:27:30;;;;;;;20.00;15.70;;;11.90;99.00;;;;;;5023782;28;20470;-66
2021/06/01 02:30:02;;;;;;;18.52;14.30;;;11.90;98.80;;;;;;5022984;28;20499;-66
2021/06/01 02:32:50;;;;;;;19.08;15.25;;;11.90;98.80;;;;;;5032864;28;20041;-66
2021/06/01 02:35:37;;;;;;;20.38;15.10;;;11.90;98.60;;;;;;5028961;28;20098;-66
2021/06/01 02:38:05;;;;;;;22.23;15.70;;;11.90;98.50;;;;;;5028253;28;20493;-66
2021/06/01 02:40:34;;;;;;;21.35;16.75;;;11.80;98.50;;;;;;5027439;28;20122;-66
2021/06/01 02:43:03;;;;;;;19.25;15.43;;;11.70;98.70;;;;;;5031880;28;20440;-66
2021/06/01 02:45:30;;;;;;;19.67;15.73;;;11.70;99.00;;;;;;5031120;28;20409;-66
2021/06/01 02:47:56;;;;;;;22.80;15.85;;;11.60;98.90;;;;;;5024929;28;20215;-66
2021/06/01 02:50:25;;;;;;;22.60;16.23;;;11.60;99.30;;;;;;5019273;28;20505;-66
2021/06/01 02:52:51;;;;;;;20.55;15.98;;;11.50;99.20;;;;;;5026860;28;20132;-66
2021/06/01 02:55:19;;;;;;;21.35;15.77;;;11.50;99.30;;;;;;5023447;28;20056;-66
2021/06/01 02:57:46;;;;;;;23.17;14.95;;;11.50;99.40;;;;;;5029032;28;20101;-66
2021/06/01 03:00:15;;;;;;;21.50;15.93;;;11.40;99.10;;;;;;5017785;28;20060;-66
2021/06/01 03:02:42;;;;;;;23.52;16.20;;;11.40;99.20;;;;;;5029238;28;20489;-66
2021/06/01 03:05:09;;;;;;;19.60;16.35;;;11.40;99.30;;;;;;5019982;28;20501;-66
2021/06/01 03:07:42;;;;;;;21.10;16.75;;;11.30;99.60;;;;;;5034287;28;20032;-66
2021/06/01 03:10:11;;;;;;;19.92;17.33;;;11.30;99.70;;;;;;5031845;28;20036;-66
2021/06/01 03:12:46;;;;;;;23.23;17.50;;;11.30;99.30;;;;;;5024672;28;20268;-66
2021/06/01 03:15:12;;;;;;;22.95;17.85;;;11.30;99.60;;;;;;5022392;28;20034;-66
2021/06/01 03:17:38;;;;;;;22.17;17.30;;;11.20;99.90;;;;;;5033371;28;20211;-66
2021/06/01 03:20:05;;;;;;;21.38;18.23;;;11.20;99.90;;;;;;5024220;28;20049;-66
2021/06/01 03:22:32;;;;;;;20.45;17.20;;;11.20;99.90;;;;;;5027849;28;20125;-66
2021/06/01 03:24:58;;;;;;;22.38;16.92;;;11.20;99.90;;;;;;5030019;28;20044;-66
2021/06/01 03:27:23;;;;;;;25.83;17.23;;;11.20;99.90;;;;;;5021788;28;20045;-66
2021/06/01 03:29:49;;;;;;;21.60;16.98;;;11.20;99.90;;;;;;5026805;28;20040;-66
2021/06/01 03:32:15;;;;;;;20.83;16.55;;;11.20;99.90;;;;;;5024569;28;20191;-65
2021/06/01 03:34:41;;;;;;;23.15;17.65;;;11.20;99.90;;;;;;5033615;28;20052;-65
2021/06/01 03:37:06;;;;;;;21.25;16.95;;;11.10;99.90;;;;;;5026570;28;20416;-65
2021/06/01 03:39:32;;;;;;;22.38;18.17;;;11.20;99.90;;;;;;5033841;28;20044;-65
2021/06/01 03:41:58;;;;;;;21.15;16.92;;;11.10;99.90;;;;;;5021026;28;20046;-65
2021/06/01 03:44:24;;;;;;;21.65;16.63;;;11.10;99.90;;;;;;5024321;28;20139;-65
2021/06/01 03:46:50;;;;;;;20.10;16.48;;;11.20;99.90;;;;;;5015590;28;20065;-65
2021/06/01 03:49:16;;;;;;;20.63;16.63;;;11.10;99.90;;;;;;5026000;28;20359;-65
2021/06/01 03:51:43;;;;;;;24.35;17.88;;;11.20;99.90;;;;;;5022133;28;20045;-65
2021/06/01 03:54:08;;;;;;;21.33;17.77;;;11.10;99.90;;;;;;5024929;28;20037;-65
2021/06/01 03:56:36;;;;;;;23.50;17.50;;;11.10;99.80;;;;;;5023264;28;20040;-65
2021/06/01 03:59:02;;;;;;;20.80;17.52;;;11.10;99.90;;;;;;5022533;28;21017;-65
2021/06/01 04:01:27;;;;;;;24.70;17.20;;;11.10;99.90;;;;;;5027410;28;20045;-65
2021/06/01 04:03:53;;;;;;;22.10;17.33;;;11.10;99.90;;;;;;5021771;28;20081;-65
2021/06/01 04:06:19;;;;;;;20.85;17.15;;;11.10;99.90;;;;;;5033107;28;20445;-65
2021/06/01 04:08:45;;;;;;;21.27;17.13;;;11.10;99.90;;;;;;5027072;28;20037;-65
2021/06/01 04:11:10;;;;;;;20.45;17.90;;;11.20;99.90;;;;;;5027760;28;20100;-65
2021/06/01 04:13:36;;;;;;;19.10;16.88;;;11.20;99.90;;;;;;5022413;28;20048;-65
2021/06/01 04:16:02;;;;;;;21.70;17.30;;;11.20;99.90;;;;;;5038297;28;20083;-65
2021/06/01 04:18:28;;;;;;;18.55;16.05;;;11.30;99.90;;;;;;5019136;28;20041;-65
2021/06/01 04:20:53;;;;;;;20.35;15.95;;;11.30;99.90;;;;;;5025581;28;20096;-65
2021/06/01 04:23:19;;;;;;;19.90;15.93;;;11.40;99.90;;;;;;5021593;28;20042;-65
2021/06/01 04:25:45;;;;;;;24.83;16.17;;;11.50;99.90;;;;;;5030646;28;20049;-65
2021/06/01 04:28:11;;;;;;;19.77;15.60;;;11.60;99.80;;;;;;5019578;28;20103;-65
2021/06/01 04:30:38;;;;;;;18.77;15.35;;;11.60;99.60;;;;;;5036042;28;20071;-65
2021/06/01 04:33:03;;;;;;;19.55;16.17;;;11.70;99.40;;;;;;5022216;28;20544;-65
2021/06/01 04:35:29;;;;;;;18.58;14.95;;;11.80;99.20;;;;;;5033017;28;20128;-65
2021/06/01 04:37:55;;;;;;;20.95;14.60;;;11.80;99.10;;;;;;5027842;28;20042;-65
2021/06/01 04:40:21;;;;;;;17.63;14.82;;;11.90;98.70;;;;;;5027064;28;20041;-65
2021/06/01 04:42:47;;;;;;;19.30;14.25;;;12.10;98.60;;;;;;5029879;28;20460;-65
2021/06/01 04:45:14;;;;;;;18.45;14.25;;;12.20;98.40;;;;;;5019790;28;20482;-65
2021/06/01 04:47:41;;;;;;;18.33;14.77;;;12.30;98.20;;;;;;5034575;28;20045;-65
2021/06/01 04:50:08;;;;;;;17.80;12.73;;;12.40;98.10;;;;;;5034697;28;20061;-65
2021/06/01 04:52:35;;;;;;;14.73;13.13;;;12.60;97.80;;;;;;5034702;28;20490;-65
2021/06/01 04:55:01;;;;;;;15.27;12.40;;;12.90;97.50;;;;;;5024830;28;20052;-66
2021/06/01 04:57:26;;;;;;;17.50;13.77;;;13.50;96.40;;;;;;5031454;28;20041;-66
2021/06/01 04:59:52;;;;;;;14.98;12.52;;;13.90;95.60;;;;;;5020556;28;20513;-66
2021/06/01 05:02:18;;;;;;;13.68;12.18;;;14.30;94.50;;;;;;5023457;28;20445;-66
2021/06/01 05:04:44;;;;;;;14.45;11.77;;;14.50;94.20;;;;;;5024268;28;20122;-66
2021/06/01 05:07:12;;;;;;;11.35;10.15;;;14.60;93.20;;;;;;5032322;28;20053;-66
2021/06/01 05:09:38;;;;;;;14.05;11.40;;;14.70;93.30;;;;;;5024957;28;20088;-66
2021/06/01 05:12:06;;;;;;;12.18;10.85;;;15.00;92.50;;;;;;5036247;28;20057;-66
2021/06/01 05:14:32;;;;;;;12.15;10.88;;;15.20;91.60;;;;;;5031437;28;20489;-66
2021/06/01 05:16:57;;;;;;;13.63;10.60;;;15.20;91.10;;;;;;5039811;28;20044;-66
2021/06/01 05:19:23;;;;;;;11.77;9.73;;;15.10;90.10;;;;;;5035463;28;20047;-66
2021/06/01 05:21:49;;;;;;;12.77;10.43;;;15.00;90.20;;;;;;5024088;28;20034;-65
2021/06/01 05:24:15;;;;;;;12.13;9.55;;;14.90;90.40;;;;;;5042289;28;20046;-65
2021/06/01 05:26:41;;;;;;;11.05;9.88;;;14.90;90.50;;;;;;5035314;28;20174;-65
2021/06/01 05:29:07;;;;;;;10.52;9.35;;;14.80;89.40;;;;;;5030381;28;20034;-66
2021/06/01 05:34:02;;;;;;;11.35;9.90;;;14.90;88.80;;;;;;5041286;28;20469;-66
2021/06/01 05:36:28;;;;;;;11.07;8.52;;;14.90;88.10;;;;;;5026841;28;20045;-66
2021/06/01 05:38:55;;;;;;;11.85;9.13;;;14.90;87.50;;;;;;5028731;28;20500;-66
2021/06/01 05:41:21;;;;;;;10.90;8.23;;;15.00;86.10;;;;;;5025957;28;20041;-66
2021/06/01 05:43:47;;;;;;;12.05;8.55;;;15.00;85.90;;;;;;5033425;28;20071;-66
2021/06/01 05:46:12;;;;;;;10.60;8.43;;;15.10;85.10;;;;;;5019989;28;20046;-66
2021/06/01 05:48:39;;;;;;;12.25;10.43;;;15.20;84.40;;;;;;5035535;28;20521;-66
2021/06/01 05:51:05;;;;;;;11.10;8.70;;;15.30;85.20;;;;;;5024875;28;20087;-66
2021/06/01 05:53:32;;;;;;;11.40;8.00;;;15.40;83.70;;;;;;5029242;28;20408;-66
2021/06/01 05:55:58;;;;;;;9.50;8.07;;;15.50;82.80;;;;;;5029704;28;20048;-66
2021/06/01 05:58:24;;;;;;;10.18;8.93;;;15.60;82.60;;;;;;5030744;28;20477;-66
2021/06/01 06:00:51;;;;;;;9.27;8.07;;;15.70;83.00;;;;;;5027517;28;20132;-66
2021/06/01 06:03:17;;;;;;;11.50;8.05;;;15.80;82.40;;;;;;5023428;28;20128;-66
2021/06/01 06:05:44;;;;;;;8.93;8.02;;;15.90;83.00;;;;;;5032324;28;20068;-66
2021/06/01 06:08:17;;;;;;;11.13;8.27;;;16.00;81.90;;;;;;5021830;28;20038;-66
2021/06/01 06:10:45;;;;;;;10.55;7.50;;;16.20;83.00;;;;;;5027363;28;20397;-66
2021/06/01 06:13:11;;;;;;;8.32;7.05;;;16.30;82.20;;;;;;5025886;28;20108;-66
2021/06/01 06:15:37;;;;;;;8.55;7.53;;;16.30;78.30;;;;;;5035836;28;20050;-66
2021/06/01 06:18:35;;;;;;;9.45;6.82;;;16.40;77.20;;;;;;5027936;28;20033;-66
2021/06/01 06:21:04;;;;;;;11.48;7.72;;;16.50;77.40;;;;;;5027171;28;20041;-66
2021/06/01 06:23:33;;;;;;;10.38;7.03;;;16.60;76.90;;;;;;5030767;28;20082;-66
2021/06/01 06:26:00;;;;;;;7.78;6.97;;;16.70;76.30;;;;;;5033352;28;20135;-66
2021/06/01 06:28:26;;;;;;;8.63;6.07;;;16.80;75.70;;;;;;5022829;28;20520;-66
2021/06/01 06:30:52;;;;;;;9.82;7.38;;;16.90;76.40;;;;;;5031514;28;20048;-66
2021/06/01 06:33:17;;;;;;;8.98;7.03;;;17.10;76.70;;;;;;5034910;28;20060;-64
2021/06/01 06:35:43;;;;;;;9.45;7.30;;;17.20;75.50;;;;;;5032705;28;20474;-66
2021/06/01 06:38:10;;;;;;;10.80;6.88;;;17.30;73.80;;;;;;5020633;28;20045;-66
2021/06/01 06:40:37;;;;;;;9.45;6.57;;;17.40;72.60;;;;;;5041089;28;20048;-66
2021/06/01 06:43:02;;;;;;;8.77;6.70;;;17.50;73.80;;;;;;5032980;28;20037;-66
2021/06/01 06:45:31;;;;;;;10.45;6.10;;;17.60;73.60;;;;;;5029070;28;20064;-66
2021/06/01 06:48:05;;;;;;;8.05;6.47;;;17.70;72.60;;;;;;5036808;28;20041;-66
2021/06/01 06:50:32;;;;;;;7.60;5.83;;;17.80;71.30;;;;;;5033477;28;20452;-66
2021/06/01 06:52:58;;;;;;;8.05;6.65;;;17.90;70.60;;;;;;5036372;28;20528;-66
2021/06/01 06:55:25;;;;;;;7.28;6.13;;;18.00;69.30;;;;;;5025767;28;20092;-66
2021/06/01 06:57:53;;;;;;;8.88;5.97;;;18.10;69.20;;;;;;5023128;28;20056;-66
2021/06/01 07:00:21;;;;;;;9.05;5.95;;;18.20;68.10;;;;;;5027243;28;20485;-66
2021/06/01 07:02:47;;;;;;;6.88;5.30;;;18.40;67.30;;;;;;5039843;28;20562;-66
2021/06/01 07:05:19;;;;;;;7.45;5.15;;;18.40;65.80;;;;;;5024299;28;20037;-66
2021/06/01 07:07:48;;;;;;;5.57;5.05;;;18.60;66.30;;;;;;5036983;28;20196;-66
2021/06/01 07:10:15;;;;;;;5.70;4.70;;;18.70;66.10;;;;;;5031584;28;20481;-66
2021/06/01 07:12:43;;;;;;;7.05;5.03;;;18.80;65.50;;;;;;5024108;28;20083;-66
2021/06/01 07:15:35;;;;;;;7.45;4.68;;;18.90;63.90;;;;;;5022897;28;20045;-66
2021/06/01 07:18:01;;;;;;;4.97;4.43;;;19.10;63.90;;;;;;5023503;28;20029;-66
2021/06/01 07:20:32;;;;;;;7.03;4.80;;;19.20;62.80;;;;;;5025249;28;20361;-66
2021/06/01 07:22:59;;;;;;;6.70;4.15;;;19.30;61.30;;;;;;5024988;28;20042;-66
2021/06/01 07:25:31;;;;;;;6.07;3.80;;;19.40;60.60;;;;;;5025368;28;20502;-66
2021/06/01 07:28:16;;;;;;;5.97;4.07;;;19.50;60.20;;;;;;5030210;28;20044;-66
2021/06/01 07:30:48;;;;;;;5.47;3.25;;;19.60;58.80;;;;;;5027175;28;20429;-66
2021/06/01 07:33:14;;;;;;;4.65;2.85;;;19.80;59.50;;;;;;5026544;28;20045;-66
2021/06/01 07:35:40;;;;;;;4.13;2.92;;;19.90;59.10;;;;;;5027855;28;20041;-66
2021/06/01 07:38:09;;;;;;;4.93;2.90;;;20.10;58.20;;;;;;5040670;28;20548;-66
2021/06/01 07:40:41;;;;;;;4.72;3.05;;;20.10;55.50;;;;;;5035950;28;20043;-66
2021/06/01 07:43:08;;;;;;;5.38;2.83;;;20.30;54.70;;;;;;5025699;28;20048;-66
2021/06/01 07:45:34;;;;;;;4.75;2.78;;;20.40;54.90;;;;;;5024852;28;20457;-66
2021/06/01 07:48:00;;;;;;;4.40;3.33;;;20.50;55.70;;;;;;5024667;28;20045;-66
2021/06/01 07:50:27;;;;;;;4.50;2.90;;;20.60;54.60;;;;;;5020898;28;20049;-66
2021/06/01 07:52:55;;;;;;;4.05;2.70;;;20.60;52.60;;;;;;5027068;28;20152;-66
2021/06/01 07:55:22;;;;;;;5.40;2.38;;;20.70;55.00;;;;;;5028380;28;20038;-66
2021/06/01 07:57:49;;;;;;;3.72;2.40;;;20.80;55.40;;;;;;5031777;28;20063;-66
2021/06/01 08:00:22;;;;;;;3.92;2.47;;;20.90;53.30;;;;;;5027059;28;20131;-66
2021/06/01 08:02:49;;;;;;;3.88;2.10;;;21.10;52.80;;;;;;5022006;28;20056;-66
2021/06/01 08:05:16;;;;;;;4.63;3.00;;;21.20;53.10;;;;;;5030884;28;20116;-66
2021/06/01 08:07:41;;;;;;;5.22;2.85;;;21.30;54.00;;;;;;5027214;28;20048;-66
2021/06/01 08:10:08;;;;;;;4.15;2.33;;;21.40;52.60;;;;;;5030883;28;20439;-66
2021/06/01 08:12:40;;;;;;;5.75;2.33;;;21.60;51.30;;;;;;5023464;28;20116;-66
2021/06/01 08:15:06;;;;;;;4.25;2.03;;;21.70;50.20;;;;;;5029789;28;20806;-66
2021/06/01 08:17:32;;;;;;;2.55;1.90;;;21.90;48.50;;;;;;5024474;28;20119;-66
2021/06/01 08:20:15;;;;;;;4.13;2.38;;;21.90;46.80;;;;;;5024784;28;20045;-66
2021/06/01 08:22:42;;;;;;;3.47;1.80;;;22.00;46.80;;;;;;5025159;28;20033;-66
2021/06/01 08:25:09;;;;;;;2.58;1.33;;;22.20;46.20;;;;;;5027958;28;20210;-66
2021/06/01 08:27:35;;;;;;;4.22;2.25;;;22.30;44.60;;;;;;5024813;28;20086;-66
2021/06/01 08:30:01;;;;;;;4.80;2.08;;;22.40;45.30;;;;;;5033983;28;20045;-67
2021/06/01 08:32:27;;;;;;;3.53;1.85;;;22.50;45.90;;;;;;5020094;28;20041;-66
2021/06/01 08:34:53;;;;;;;4.72;1.90;;;22.70;45.80;;;;;;5024804;28;20044;-66
2021/06/01 08:37:18;;;;;;;4.28;1.67;;;22.90;44.90;;;;;;5020618;28;20129;-66
2021/06/01 08:39:44;;;;;;;3.58;1.77;;;23.10;44.40;;;;;;5026048;28;20049;-67
2021/06/01 08:42:10;;;;;;;3.00;1.27;;;23.40;45.30;;;;;;5028298;28;20050;-67
2021/06/01 08:44:36;;;;;;;2.28;1.45;;;23.60;44.70;;;;;;5032254;28;20083;-67
2021/06/01 08:47:02;;;;;;;3.28;1.50;;;23.70;43.10;;;;;;5031854;28;20127;-67
2021/06/01 08:49:28;;;;;;;5.15;1.63;;;23.80;43.00;;;;;;5026407;28;20065;-69
2021/06/01 08:51:54;;;;;;;3.25;1.70;;;23.90;42.40;;;;;;5029090;28;20062;-67
2021/06/01 08:54:20;;;;;;;2.65;1.35;;;24.00;42.40;;;;;;5030638;28;20067;-66
2021/06/01 08:56:46;;;;;;;5.07;1.25;;;24.30;40.40;;;;;;5029037;28;20049;-67
2021/06/01 08:59:13;;;;;;;2.80;1.30;;;24.30;39.30;;;;;;5032117;28;20037;-68
2021/06/01 09:01:39;;;;;;;3.20;1.20;;;24.30;39.70;;;;;;5042768;28;20041;-68
2021/06/01 09:04:09;;;;;;;5.20;1.30;;;24.40;39.50;;;;;;5033979;28;20411;-69
2021/06/01 09:22:44;;;;;;;3.25;1.30;;;24.90;36.70;;;;;;5036237;28;20049;-67
2021/06/01 09:25:19;;;;;;;2.40;1.30;;;25.20;38.80;;;;;;5025380;28;20592;-67
2021/06/01 09:27:48;;;;;;;2.55;1.27;;;25.20;36.10;;;;;;5031898;28;20092;-68
2021/06/01 09:30:37;;;;;;;3.78;1.38;;;25.10;36.70;;;;;;5017444;28;20070;-66
2021/06/01 09:33:16;;;;;;;3.20;1.40;;;25.20;35.70;;;;;;5025109;28;20045;-68
2021/06/01 09:35:48;;;;;;;3.50;1.50;;;25.20;34.20;;;;;;5027963;28;20092;-67
2021/06/01 09:38:16;;;;;;;2.53;1.00;;;25.20;34.00;;;;;;5034364;28;20045;-67
2021/06/01 09:40:42;;;;;;;3.22;1.23;;;25.30;36.60;;;;;;5023209;28;20106;-66
2021/06/01 09:43:14;;;;;;;3.58;1.08;;;25.50;34.70;;;;;;5033691;28;20045;-67
2021/06/01 09:45:41;;;;;;;4.60;1.10;;;25.30;32.80;;;;;;5021465;28;20069;-67
2021/06/01 09:48:09;;;;;;;1.40;0.88;;;25.10;33.90;;;;;;5034200;28;20038;-68
2021/06/01 09:53:39;;;;;;;2.17;1.00;;;25.60;34.50;;;;;;5029333;28;20049;-68
2021/06/01 09:56:05;;;;;;;2.92;1.25;;;25.90;32.80;;;;;;5018413;28;20119;-67
2021/06/01 09:58:35;;;;;;;1.73;0.98;;;25.90;33.90;;;;;;5044856;28;20492;-67
2021/06/01 10:01:06;;;;;;;3.55;1.15;;;26.10;34.30;;;;;;5023773;28;20494;-67
2021/06/01 10:03:40;;;;;;;3.03;1.00;;;26.20;32.70;;;;;;5033420;28;20103;-67
2021/06/01 10:06:06;;;;;;;;;;;26.40;34.10;;;;;;5025574;28;20099;-68
2021/06/01 10:08:32;;;;;;;3.40;1.30;;;26.50;33.40;;;;;;5032923;28;20296;-68
2021/06/01 10:11:03;;;;;;;1.75;1.00;;;26.40;32.60;;;;;;5019356;28;20516;-67
2021/06/01 10:13:31;;;;;;;6.63;1.42;;;26.50;31.60;;;;;;5033105;28;20051;-67
2021/06/01 10:15:59;;;;;;;2.40;0.90;;;26.70;33.10;;;;;;5043372;28;20074;-67
2021/06/01 10:18:29;;;;;;;1.73;0.98;;;26.90;31.90;;;;;;5026057;28;20041;-68
2021/06/01 10:21:01;;;;;;;1.17;0.60;;;27.10;31.50;;;;;;5026017;28;20091;-68
2021/06/01 10:23:33;;;;;;;3.00;1.10;;;27.20;32.90;;;;;;5023514;28;20386;-68
2021/06/01 10:26:00;;;;;;;2.42;0.80;;;27.30;31.20;;;;;;5027015;28;20731;-67
2021/06/01 10:28:31;;;;;;;1.48;0.70;;;27.40;33.10;;;;;;5027603;28;20055;-66
2021/06/01 10:30:57;;;;;;;1.50;0.80;;;27.60;32.80;;;;;;5028300;28;20040;-67
2021/06/01 10:33:27;;;;;;;1.42;0.80;;;27.90;31.70;;;;;;5027078;28;20124;-69
2021/06/01 10:50:28;;;;;;;4.30;0.88;;;28.50;30.10;;;;;;5031002;28;20069;-68
2021/06/01 10:53:21;;;;;;;2.60;0.60;;;28.60;30.50;;;;;;5019179;28;20508;-67
2021/06/01 10:55:50;;;;;;;1.30;0.80;;;28.80;27.20;;;;;;5033298;28;20112;-67
2021/06/01 10:58:45;;;;;;;1.85;0.68;;;28.60;29.50;;;;;;5022365;28;20100;-68
2021/06/01 11:04:14;;;;;;;3.08;0.70;;;28.70;29.90;;;;;;5027735;28;20044;-70
2021/06/01 11:06:58;;;;;;;10.13;0.90;;;28.80;28.80;;;;;;5034464;28;20037;-69
2021/06/01 11:09:33;;;;;;;2.08;0.75;;;28.80;28.30;;;;;;5028265;28;20394;-68
2021/06/01 11:12:22;;;;;;;3.67;0.70;;;28.80;27.90;;;;;;5028790;28;20032;-67
2021/06/01 11:14:57;;;;;;;2.83;0.60;;;28.80;28.40;;;;;;5021912;28;20513;-67
2021/06/01 11:17:39;;;;;;;3.10;1.00;;;29.00;28.80;;;;;;5029681;28;20099;-67
2021/06/01 11:20:10;;;;;;;1.13;0.55;;;29.20;27.50;;;;;;5019579;28;20418;-69
2021/06/01 11:22:47;;;;;;;2.80;0.68;;;29.10;27.90;;;;;;5031959;28;20393;-66
2021/06/01 11:33:30;;;;;;;1.95;0.65;;;29.20;29.00;;;;;;5036500;28;20123;-67
2021/06/01 11:36:10;;;;;;;1.50;0.60;;;29.40;28.10;;;;;;5027009;28;20050;-67
2021/06/01 11:39:01;;;;;;;2.92;0.90;;;29.50;27.50;;;;;;5029782;28;20227;-66
2021/06/01 11:44:18;;;;;;;3.75;0.70;;;28.90;26.10;;;;;;5026133;28;20620;-66
2021/06/01 11:46:56;;;;;;;3.55;0.63;;;28.50;27.50;;;;;;5023986;28;20204;-67
2021/06/01 11:52:08;;;;;;;3.05;0.80;;;28.80;28.40;;;;;;5033946;28;20045;-67
2021/06/01 11:54:34;;;;;;;1.83;0.60;;;28.90;26.60;;;;;;5031245;28;20038;-67
2021/06/01 12:01:59;;;;;;;2.38;0.68;;;29.00;27.40;;;;;;5029120;28;20269;-67
2021/06/01 12:11:15;;;;;;;1.13;0.50;;;29.00;27.50;;;;;;5028293;28;20044;-67
2021/06/01 12:18:58;;;;;;;2.17;0.55;;;29.10;27.60;;;;;;5026896;28;20049;-67
2021/06/01 12:21:32;;;;;;;3.03;0.80;;;29.00;26.50;;;;;;5023531;28;20623;-67
2021/06/01 12:24:21;;;;;;;3.33;0.70;;;29.00;27.10;;;;;;5029823;28;22032;-67
2021/06/01 12:32:26;;;;;;;2.83;1.25;;;28.90;26.40;;;;;;5021468;28;20073;-75
2021/06/01 13:19:44;;;;;;;4.53;0.80;;;27.70;28.70;;;;;;5031169;28;20143;-69
2021/06/01 13:22:39;;;;;;;2.33;0.80;;;27.60;29.70;;;;;;5024818;28;20049;-70
2021/06/01 13:39:31;;;;;;;3.42;1.33;;;27.30;30.00;;;;;;5024583;28;20048;-69
2021/06/01 13:47:18;;;;;;;3.63;1.05;;;27.10;31.50;;;;;;5044362;28;20041;-74
2021/06/01 13:49:50;;;;;;;3.15;1.38;;;27.00;31.90;;;;;;5030699;28;20715;-72
2021/06/01 14:09:28;;;;;;;2.20;1.40;;;26.90;31.10;;;;;;5036033;28;20102;-70
2021/06/01 15:28:35;;;;;;;4.13;1.40;;;25.40;34.50;;;;;;5013255;28;20044;-67
2021/06/01 15:32:51;;;;;;;2.40;1.30;;;25.40;35.60;;;;;;5030611;28;20037;-67
2021/06/01 15:47:47;;;;;;;2.22;1.35;;;25.30;34.90;;;;;;5025257;28;20039;-65
2021/06/01 16:22:44;;;;;;;2.25;1.58;;;25.00;36.60;;;;;;5024758;28;20052;-75
2021/06/01 17:03:49;;;;;;;3.78;1.70;;;24.50;37.90;;;;;;5028858;28;20044;-73
2021/06/01 17:06:26;;;;;;;4.20;1.90;;;24.50;38.30;;;;;;5028789;28;20040;-73
2021/06/01 17:11:44;;;;;;;4.80;1.60;;;24.50;38.40;;;;;;5031441;28;20400;-71
2021/06/01 17:14:11;;;;;;;4.18;1.77;;;24.40;38.90;;;;;;5028117;28;20363;-71
2021/06/01 17:16:48;;;;;;;3.95;1.80;;;24.40;39.10;;;;;;5031476;28;20041;-71
2021/06/01 17:30:43;;;;;;;4.40;2.03;;;24.20;39.80;;;;;;5031208;28;20049;-67
2021/06/01 17:35:58;;;;;;;5.25;1.90;;;24.20;40.50;;;;;;5028735;28;20067;-67
2021/06/01 17:38:25;;;;;;;3.13;1.85;;;24.20;41.00;;;;;;5028512;28;26986;-67
2021/06/01 17:40:55;;;;;;;3.38;2.17;;;24.20;41.20;;;;;;5027239;28;20063;-67
2021/06/01 17:43:29;;;;;;;3.83;1.80;;;24.10;41.30;;;;;;5024620;28;20045;-67
2021/06/01 17:45:56;;;;;;;2.45;1.83;;;24.10;41.60;;;;;;5025744;28;20500;-67
2021/06/01 17:51:00;;;;;;;3.85;2.00;;;24.10;42.20;;;;;;5025468;28;20393;-67
2021/06/01 17:53:26;;;;;;;4.07;2.03;;;24.10;42.00;;;;;;5029070;28;20116;-66
2021/06/01 17:55:53;;;;;;;4.65;2.17;;;24.00;41.60;;;;;;5019549;28;20045;-66
2021/06/01 17:58:24;;;;;;;5.38;2.15;;;24.00;41.60;;;;;;5029324;28;20033;-67
2021/06/01 18:00:51;;;;;;;3.55;2.03;;;23.90;41.90;;;;;;5030589;28;20041;-67
2021/06/01 18:03:19;;;;;;;3.28;2.08;;;23.90;42.50;;;;;;5033410;28;20033;-66
2021/06/01 18:05:49;;;;;;;5.82;2.20;;;23.90;42.70;;;;;;5025335;28;20042;-67
2021/06/01 18:36:23;;;;;;;6.75;2.30;;;23.60;45.00;;;;;;5020501;28;20042;-67
2021/06/01 19:24:43;;;;;;;5.13;3.33;;;21.00;57.10;;;;;;5026749;28;20116;-66
2021/06/01 19:50:10;;;;;;;5.70;3.63;;;19.90;59.80;;;;;;5028908;28;20052;-66
2021/06/01 19:52:47;;;;;;;8.02;3.50;;;19.80;60.00;;;;;;5028003;28;20429;-66
2021/06/01 19:55:14;;;;;;;7.00;3.80;;;19.60;61.30;;;;;;5018512;28;20044;-65
2021/06/01 19:57:41;;;;;;;5.55;3.75;;;19.60;60.50;;;;;;5031354;28;20048;-65
2021/06/01 20:00:10;;;;;;;4.25;3.67;;;19.40;60.90;;;;;;5020783;28;20045;-66
2021/06/01 20:02:37;;;;;;;5.25;3.92;;;19.40;61.40;;;;;;5026068;28;20148;-65
2021/06/01 20:05:11;;;;;;;7.97;3.97;;;19.30;61.40;;;;;;5022870;28;20053;-65
2021/06/01 20:07:38;;;;;;;6.85;3.88;;;19.30;61.70;;;;;;5024657;28;20079;-66
2021/06/01 20:10:07;;;;;;;6.00;4.07;;;19.20;61.90;;;;;;5034241;28;20076;-66
2021/06/01 20:12:33;;;;;;;5.55;3.92;;;19.10;62.30;;;;;;5025818;28;20045;-66
2021/06/01 20:14:59;;;;;;;6.53;3.97;;;18.90;62.20;;;;;;5022072;28;20174;-66